createdAt,value
2023-03-05T00:02:23.580Z,100306.38
2023-03-05T00:04:51.076Z,100299.47
2023-03-05T00:07:18.540Z,100299.28
2023-03-05T00:09:46.317Z,100299.88
2023-03-05T00:12:13.893Z,100307.19
2023-03-05T00:14:42.709Z,100307.84
2023-03-05T00:17:10.208Z,100298.44
2023-03-05T00:19:37.866Z,100295.53
2023-03-05T00:22:05.374Z,100300.09
2023-03-05T00:24:32.957Z,100293.66
2023-03-05T00:27:00.432Z,100291.16
2023-03-05T00:29:30.805Z,100281.78
2023-03-05T00:32:00.710Z,100279.16
2023-03-05T00:34:29.715Z,100272.91
2023-03-05T00:36:57.353Z,100281.75
2023-03-05T00:39:25.057Z,100283.34
2023-03-05T00:41:52.614Z,100275.97
2023-03-05T00:44:21.047Z,100267.94
2023-03-05T00:46:48.893Z,100270.34
2023-03-05T00:49:17.783Z,100267.38
2023-03-05T00:51:45.564Z,100268.66
2023-03-05T00:54:13.173Z,100265.84
2023-03-05T00:56:40.668Z,100263.38
2023-03-05T00:59:08.534Z,100259.22
2023-03-05T01:01:36.260Z,100257.38
2023-03-05T01:04:04.144Z,100256.56
2023-03-05T01:06:33.148Z,100259.53
2023-03-05T01:09:00.721Z,100254.69
2023-03-05T01:11:28.299Z,100255.94
2023-03-05T01:13:56.104Z,100253.91
2023-03-05T01:16:23.739Z,100246.56
2023-03-05T01:18:51.405Z,100242.31
2023-03-05T01:21:18.882Z,100240.34
2023-03-05T01:23:47.722Z,100230.75
2023-03-05T01:26:15.346Z,100230.09
2023-03-05T01:28:42.970Z,100224.53
2023-03-05T01:31:11.538Z,100222.91
2023-03-05T01:33:39.301Z,100224.69
2023-03-05T01:36:13.428Z,100215.75
2023-03-05T01:38:41.566Z,100213.06
2023-03-05T01:41:11.532Z,100212.09
2023-03-05T01:43:39.329Z,100211.25
2023-03-05T01:46:37.970Z,100203.34
2023-03-05T01:49:11.275Z,100192.94
2023-03-05T01:51:42.732Z,100190.28
2023-03-05T01:54:11.812Z,100173.94
2023-03-05T01:56:41.136Z,100175.22
2023-03-05T01:59:08.961Z,100175.06
2023-03-05T02:01:40.688Z,100169.22
2023-03-05T02:04:09.534Z,100171.41
2023-03-05T02:06:37.574Z,100168.34
2023-03-05T02:09:05.216Z,100172.00
2023-03-05T02:11:33.620Z,100165.19
2023-03-05T02:14:02.957Z,100164.13
2023-03-05T02:16:35.868Z,100173.94
2023-03-05T02:19:04.794Z,100167.78
2023-03-05T02:21:40.042Z,100171.56
2023-03-05T02:24:08.081Z,100173.22
2023-03-05T02:26:35.624Z,100158.09
2023-03-05T02:29:04.167Z,100160.88
2023-03-05T02:31:32.811Z,100159.06
2023-03-05T02:34:00.448Z,100162.63
2023-03-05T02:36:27.925Z,100158.66
2023-03-05T02:38:57.159Z,100153.28
2023-03-05T02:41:25.070Z,100154.41
2023-03-05T02:43:52.572Z,100152.75
2023-03-05T02:46:21.306Z,100145.44
2023-03-05T02:48:49.953Z,100139.50
2023-03-05T02:51:17.548Z,100137.25
2023-03-05T02:53:45.225Z,100138.25
2023-03-05T02:56:14.097Z,100135.59
2023-03-05T02:58:41.933Z,100136.75
2023-03-05T03:01:10.038Z,100130.97
2023-03-05T03:03:38.008Z,100138.63
2023-03-05T03:06:06.253Z,100126.28
2023-03-05T03:08:33.736Z,100124.63
2023-03-05T03:11:06.567Z,100117.88
2023-03-05T03:13:35.608Z,100116.25
2023-03-05T03:16:04.024Z,100109.44
2023-03-05T03:18:31.556Z,100111.88
2023-03-05T03:20:59.215Z,100110.88
2023-03-05T03:23:26.717Z,100106.44
2023-03-05T03:25:54.254Z,100100.91
2023-03-05T03:28:21.849Z,100103.41
2023-03-05T03:30:50.979Z,100105.31
2023-03-05T03:33:18.936Z,100098.28
2023-03-05T03:35:47.003Z,100088.91
2023-03-05T03:38:14.681Z,100087.69
2023-03-05T03:40:42.474Z,100089.06
2023-03-05T03:43:10.178Z,100081.41
2023-03-05T03:45:41.632Z,100077.19
2023-03-05T03:48:10.500Z,100076.94
2023-03-05T03:50:39.708Z,100076.97
2023-03-05T03:53:07.454Z,100062.53
2023-03-05T03:55:35.370Z,100071.34
2023-03-05T03:58:03.309Z,100067.63
2023-03-05T04:00:30.789Z,100060.91
2023-03-05T04:02:58.271Z,100055.59
2023-03-05T04:05:27.072Z,100058.75
2023-03-05T04:07:54.731Z,100058.78
2023-03-05T04:10:22.224Z,100053.75
2023-03-05T04:12:49.698Z,100052.91
2023-03-05T04:15:18.140Z,100048.50
2023-03-05T04:17:45.634Z,100056.16
2023-03-05T04:20:13.659Z,100044.97
2023-03-05T04:22:42.474Z,100045.63
2023-03-05T04:25:10.734Z,100053.44
2023-03-05T04:27:40.255Z,100042.91
2023-03-05T04:30:09.582Z,100043.56
2023-03-05T04:32:37.129Z,100043.78
2023-03-05T04:35:05.125Z,100043.16
2023-03-05T04:37:32.664Z,100033.88
2023-03-05T04:40:01.478Z,100037.78
2023-03-05T04:42:28.981Z,100028.53
2023-03-05T04:44:56.495Z,100033.38
2023-03-05T04:47:24.083Z,100026.78
2023-03-05T04:49:51.697Z,100025.19
2023-03-05T04:52:19.187Z,100026.34
2023-03-05T04:54:46.884Z,100009.44
2023-03-05T04:57:15.682Z,100019.03
2023-03-05T04:59:43.211Z,100004.19
2023-03-05T05:02:10.696Z,100015.91
2023-03-05T05:04:38.178Z,100019.97
2023-03-05T05:07:07.598Z,100014.44
2023-03-05T05:09:35.117Z,100017.06
2023-03-05T05:12:02.679Z,100015.06
2023-03-05T05:14:31.565Z,99998.88
2023-03-05T05:16:59.652Z,100004.19
2023-03-05T05:19:27.172Z,99996.94
2023-03-05T05:21:54.701Z,100007.47
2023-03-05T05:24:22.164Z,99997.09
2023-03-05T05:26:49.680Z,100001.44
2023-03-05T05:29:17.159Z,100005.38
2023-03-05T05:31:46.374Z,99999.50
2023-03-05T05:34:14.110Z,99999.38
2023-03-05T05:36:41.607Z,99996.78
2023-03-05T05:39:09.440Z,99988.88
2023-03-05T05:41:37.050Z,99997.63
2023-03-05T05:44:04.754Z,99993.34
2023-03-05T05:46:32.294Z,99996.91
2023-03-05T05:49:01.158Z,99996.78
2023-03-05T05:51:28.815Z,99993.81
2023-03-05T05:53:56.326Z,99992.50
2023-03-05T05:56:23.820Z,99995.59
2023-03-05T05:58:51.318Z,99996.78
2023-03-05T06:01:22.276Z,99995.03
2023-03-05T06:03:49.781Z,99994.44
2023-03-05T06:06:20.180Z,99995.03
2023-03-05T06:08:47.676Z,99993.34
2023-03-05T06:11:17.109Z,100000.38
2023-03-05T06:13:46.295Z,99989.78
2023-03-05T06:16:15.309Z,99994.19
2023-03-05T06:18:43.264Z,99992.41
2023-03-05T06:21:12.800Z,99989.84
2023-03-05T06:23:42.979Z,99993.38
2023-03-05T06:26:12.531Z,99988.19
2023-03-05T06:28:40.078Z,99994.09
2023-03-05T06:31:09.069Z,99991.06
2023-03-05T06:33:37.076Z,99989.19
2023-03-05T06:36:04.811Z,99989.13
2023-03-05T06:38:32.619Z,100001.28
2023-03-05T06:41:05.605Z,99994.13
2023-03-05T06:43:35.493Z,99989.84
2023-03-05T06:46:04.648Z,99992.44
2023-03-05T06:48:32.458Z,99991.25
2023-03-05T06:50:59.985Z,99981.38
2023-03-05T06:53:27.531Z,99985.94
2023-03-05T06:55:55.067Z,99982.16
2023-03-05T06:58:23.907Z,99983.91
2023-03-05T07:00:51.389Z,99982.16
2023-03-05T07:03:19.144Z,99989.03
2023-03-05T07:05:46.698Z,99986.44
2023-03-05T07:08:14.190Z,99972.59
2023-03-05T07:10:42.978Z,99973.25
2023-03-05T07:13:11.269Z,99984.59
2023-03-05T07:15:41.228Z,99986.09
2023-03-05T07:18:09.187Z,99977.00
2023-03-05T07:20:38.758Z,99976.84
2023-03-05T07:23:06.280Z,99979.97
2023-03-05T07:25:36.856Z,99976.34
2023-03-05T07:28:05.364Z,99973.91
2023-03-05T07:30:33.060Z,99972.00
2023-03-05T07:33:02.065Z,99970.03
2023-03-05T07:35:29.647Z,99985.13
2023-03-05T07:37:57.205Z,99982.56
2023-03-05T07:40:24.748Z,99972.16
2023-03-05T07:42:52.338Z,99974.63
2023-03-05T07:45:20.028Z,99976.19
2023-03-05T07:47:47.691Z,99973.22
2023-03-05T07:50:17.421Z,99972.78
2023-03-05T07:52:44.905Z,99976.31
2023-03-05T07:55:12.466Z,99958.72
2023-03-05T07:57:39.955Z,99962.34
2023-03-05T08:00:08.751Z,99963.38
2023-03-05T08:02:36.284Z,99964.09
2023-03-05T08:05:04.171Z,99970.94
2023-03-05T08:07:32.999Z,99964.81
2023-03-05T08:10:00.468Z,99963.00
2023-03-05T08:12:27.967Z,99962.25
2023-03-05T08:14:55.464Z,99960.94
2023-03-05T08:17:22.938Z,99958.63
2023-03-05T08:19:50.446Z,99957.34
2023-03-05T08:22:20.440Z,99958.59
2023-03-05T08:24:50.444Z,99955.19
2023-03-05T08:27:17.997Z,99950.88
2023-03-05T08:29:45.528Z,99946.47
2023-03-05T08:32:13.600Z,99946.38
2023-03-05T08:34:41.243Z,99948.25
2023-03-05T08:37:09.222Z,99951.84
2023-03-05T08:39:36.738Z,99933.47
2023-03-05T08:42:08.880Z,99938.63
2023-03-05T08:44:36.539Z,99940.25
2023-03-05T08:47:04.027Z,99934.19
2023-03-05T08:49:31.552Z,99921.94
2023-03-05T08:51:59.057Z,99927.94
2023-03-05T08:54:26.556Z,99928.78
2023-03-05T08:56:54.019Z,99914.03
2023-03-05T08:59:22.798Z,99925.47
2023-03-05T09:01:50.738Z,99917.59
2023-03-05T09:04:18.741Z,99914.06
2023-03-05T09:06:46.203Z,99914.97
2023-03-05T09:09:14.136Z,99916.72
2023-03-05T09:11:41.654Z,99900.88
2023-03-05T09:14:09.284Z,99898.22
2023-03-05T09:16:40.471Z,99901.63
2023-03-05T09:19:08.932Z,99902.50
2023-03-05T09:21:36.403Z,99899.09
2023-03-05T09:24:04.357Z,99897.84
2023-03-05T09:26:31.851Z,99901.47
2023-03-05T09:28:59.376Z,99899.72
2023-03-05T09:31:26.894Z,99895.28
2023-03-05T09:33:55.694Z,99887.56
2023-03-05T09:36:25.114Z,99886.66
2023-03-05T09:38:53.208Z,99878.75
2023-03-05T09:41:30.209Z,99893.72
2023-03-05T09:44:04.760Z,99884.06
2023-03-05T09:46:42.755Z,99878.72
2023-03-05T09:49:17.415Z,99889.34
2023-03-05T09:51:46.741Z,99880.53
2023-03-05T09:54:17.105Z,99873.50
2023-03-05T09:56:47.986Z,99878.78
2023-03-05T09:59:23.369Z,99879.69
2023-03-05T10:01:53.023Z,99877.91
2023-03-05T10:04:25.124Z,99880.53
2023-03-05T10:06:57.512Z,99893.69
2023-03-05T10:09:36.963Z,99885.78
2023-03-05T10:12:07.349Z,99880.47
2023-03-05T10:14:36.236Z,99885.78
2023-03-05T10:17:33.158Z,99877.03
2023-03-05T10:20:36.806Z,99876.13
2023-03-05T10:23:12.456Z,99871.72
2023-03-05T10:25:51.865Z,99865.56
2023-03-05T10:28:23.010Z,99887.53
2023-03-05T10:31:02.058Z,99889.06
2023-03-05T10:33:36.364Z,99896.16
2023-03-05T10:36:17.994Z,99888.31
2023-03-05T10:39:05.178Z,99889.88
2023-03-05T10:41:37.555Z,99885.47
2023-03-05T10:44:10.826Z,99886.41
2023-03-05T10:46:39.307Z,99889.97
2023-03-05T10:49:16.172Z,99887.94
2023-03-05T10:51:51.766Z,99887.19
2023-03-05T10:54:25.435Z,99883.69
2023-03-05T10:57:04.516Z,99877.63
2023-03-05T10:59:33.101Z,99880.91
2023-03-05T11:02:05.835Z,99874.84
2023-03-05T11:04:36.923Z,99874.19
2023-03-05T11:07:31.355Z,99861.63
2023-03-05T11:10:16.858Z,99867.78
2023-03-05T11:12:45.051Z,99854.81
2023-03-05T11:15:28.546Z,99854.03
2023-03-05T11:18:10.924Z,99846.97
2023-03-05T11:20:39.883Z,99846.03
2023-03-05T11:23:13.076Z,99832.84
2023-03-05T11:25:54.832Z,99828.53
2023-03-05T11:28:33.064Z,99830.31
2023-03-05T11:31:04.825Z,99821.44
2023-03-05T11:33:32.505Z,99814.41
2023-03-05T11:36:23.830Z,99810.03
2023-03-05T11:38:55.038Z,99812.69
2023-03-05T11:41:28.280Z,99801.25
2023-03-05T11:43:56.885Z,99823.22
2023-03-05T11:46:24.967Z,99802.09
2023-03-05T11:48:54.406Z,99792.22
2023-03-05T11:51:24.070Z,99794.16
2023-03-05T11:53:56.056Z,99797.69
2023-03-05T11:56:26.834Z,99794.13
2023-03-05T11:58:58.721Z,99775.41
2023-03-05T12:01:28.856Z,99776.91
2023-03-05T12:03:56.734Z,99780.44
2023-03-05T12:06:30.626Z,99778.94
2023-03-05T12:09:01.710Z,99772.75
2023-03-05T12:11:30.840Z,99768.97
2023-03-05T12:14:00.433Z,99760.41
2023-03-05T12:16:30.661Z,99759.53
2023-03-05T12:19:30.637Z,99760.75
2023-03-05T12:21:58.419Z,99749.84
2023-03-05T12:24:38.468Z,99758.56
2023-03-05T12:27:11.570Z,99741.06
2023-03-05T12:29:41.729Z,99739.28
2023-03-05T12:32:43.100Z,99731.13
2023-03-05T12:35:24.349Z,99739.03
2023-03-05T12:38:01.794Z,99730.53
2023-03-05T12:40:32.761Z,99734.84
2023-03-05T12:43:01.653Z,99734.06
2023-03-05T12:45:37.478Z,99742.91
2023-03-05T12:48:43.953Z,99738.56
2023-03-05T12:51:16.094Z,99735.91
2023-03-05T12:53:43.832Z,99739.50
2023-03-05T12:56:19.620Z,99728.78
2023-03-05T12:58:49.006Z,99733.31
2023-03-05T13:01:28.744Z,99722.75
2023-03-05T13:03:57.881Z,99723.59
2023-03-05T13:06:27.969Z,99715.75
2023-03-05T13:09:00.480Z,99718.28
2023-03-05T13:11:31.491Z,99722.78
2023-03-05T13:13:59.477Z,99722.81
2023-03-05T13:16:29.567Z,99719.25
2023-03-05T13:18:59.648Z,99710.44
2023-03-05T13:21:29.023Z,99698.88
2023-03-05T13:23:59.197Z,99706.94
2023-03-05T13:26:27.479Z,99703.25
2023-03-05T13:29:08.205Z,99696.84
2023-03-05T13:31:36.983Z,99688.50
2023-03-05T13:34:12.474Z,99682.69
2023-03-05T13:36:40.981Z,99679.22
2023-03-05T13:39:08.454Z,99680.88
2023-03-05T13:41:35.972Z,99678.41
2023-03-05T13:44:03.828Z,99672.28
2023-03-05T13:46:34.804Z,99671.19
2023-03-05T13:49:19.143Z,99673.13
2023-03-05T13:51:48.240Z,99664.03
2023-03-05T13:54:17.823Z,99662.97
2023-03-05T13:56:53.606Z,99656.84
2023-03-05T13:59:22.742Z,99654.31
2023-03-05T14:01:52.656Z,99639.91
2023-03-05T14:04:23.040Z,99648.59
2023-03-05T14:06:54.757Z,99647.53
2023-03-05T14:09:33.415Z,99645.31
2023-03-05T14:12:03.449Z,99634.06
2023-03-05T14:14:32.563Z,99637.75
2023-03-05T14:17:33.257Z,99640.13
2023-03-05T14:20:21.513Z,99633.47
2023-03-05T14:22:50.177Z,99637.66
2023-03-05T14:25:29.062Z,99642.19
2023-03-05T14:27:57.065Z,99623.00
2023-03-05T14:30:25.989Z,99625.44
2023-03-05T14:32:55.411Z,99626.44
2023-03-05T14:35:27.290Z,99623.75
2023-03-05T14:37:56.642Z,99623.81
2023-03-05T14:40:28.779Z,99631.75
2023-03-05T14:42:56.734Z,99622.03
2023-03-05T14:45:26.424Z,99621.78
2023-03-05T14:47:55.225Z,99611.47
2023-03-05T14:50:25.796Z,99611.16
2023-03-05T14:52:57.102Z,99611.56
2023-03-05T14:55:26.545Z,99609.00
2023-03-05T14:58:04.277Z,99606.25
2023-03-05T15:00:32.404Z,99607.00
2023-03-05T15:03:00.098Z,99607.88
2023-03-05T15:05:29.067Z,99599.78
2023-03-05T15:07:56.655Z,99593.75
2023-03-05T15:10:25.945Z,99588.88
2023-03-05T15:12:53.841Z,99581.66
2023-03-05T15:15:22.397Z,99582.34
2023-03-05T15:17:54.621Z,99593.81
2023-03-05T15:20:23.995Z,99572.81
2023-03-05T15:22:53.184Z,99583.56
2023-03-05T15:25:22.083Z,99577.13
2023-03-05T15:27:50.865Z,99564.75
2023-03-05T15:30:23.348Z,99569.09
2023-03-05T15:32:51.376Z,99570.94
2023-03-05T15:35:20.281Z,99559.88
2023-03-05T15:37:47.846Z,99558.50
2023-03-05T15:40:16.803Z,99559.72
2023-03-05T15:42:44.351Z,99563.81
2023-03-05T15:45:12.149Z,99555.34
2023-03-05T15:47:39.874Z,99553.03
2023-03-05T15:50:09.310Z,99544.31
2023-03-05T15:52:36.890Z,99547.00
2023-03-05T15:55:05.068Z,99533.75
2023-03-05T15:57:35.842Z,99536.75
2023-03-05T16:00:05.188Z,99534.63
2023-03-05T16:02:33.129Z,99541.69
2023-03-05T16:05:01.737Z,99534.03
2023-03-05T16:07:30.870Z,99528.91
2023-03-05T16:09:59.296Z,99529.47
2023-03-05T16:12:29.030Z,99522.38
2023-03-05T16:14:57.952Z,99517.31
2023-03-05T16:17:25.867Z,99527.34
2023-03-05T16:19:55.090Z,99519.38
2023-03-05T16:22:23.807Z,99521.69
2023-03-05T16:24:51.324Z,99524.94
2023-03-05T16:27:19.029Z,99518.38
2023-03-05T16:29:46.949Z,99517.88
2023-03-05T16:32:17.497Z,99516.44
2023-03-05T16:34:45.172Z,99513.19
2023-03-05T16:37:19.302Z,99508.78
2023-03-05T16:39:47.398Z,99508.41
2023-03-05T16:42:15.196Z,99500.53
2023-03-05T16:44:43.583Z,99506.75
2023-03-05T16:47:12.242Z,99502.94
2023-03-05T16:49:41.346Z,99501.09
2023-03-05T16:52:19.934Z,99503.72
2023-03-05T16:54:48.663Z,99499.97
2023-03-05T16:57:16.686Z,99490.81
2023-03-05T16:59:44.554Z,99503.69
2023-03-05T17:02:13.279Z,99500.72
2023-03-05T17:04:43.599Z,99503.66
2023-03-05T17:07:11.267Z,99495.47
2023-03-05T17:09:38.931Z,99502.78
2023-03-05T17:12:07.160Z,99501.69
2023-03-05T17:14:35.000Z,99497.28
2023-03-05T17:17:02.698Z,99492.91
2023-03-05T17:19:31.811Z,99489.38
2023-03-05T17:22:00.996Z,99481.63
2023-03-05T17:24:28.847Z,99482.53
2023-03-05T17:26:56.694Z,99481.72
2023-03-05T17:29:24.827Z,99477.25
2023-03-05T17:31:53.530Z,99483.53
2023-03-05T17:34:33.203Z,99479.94
2023-03-05T17:37:03.119Z,99480.78
2023-03-05T17:39:30.801Z,99481.16
2023-03-05T17:41:58.287Z,99484.72
2023-03-05T17:44:25.837Z,99473.78
2023-03-05T17:46:54.392Z,99473.91
2023-03-05T17:49:22.047Z,99479.94
2023-03-05T17:51:49.719Z,99471.94
2023-03-05T17:54:18.762Z,99478.38
2023-03-05T17:56:48.018Z,99468.50
2023-03-05T17:59:16.349Z,99478.38
2023-03-05T18:01:44.102Z,99470.38
2023-03-05T18:04:12.732Z,99484.06
2023-03-05T18:06:40.300Z,99476.81
2023-03-05T18:09:08.008Z,99469.69
2023-03-05T18:11:36.951Z,99467.94
2023-03-05T18:14:04.487Z,99460.47
2023-03-05T18:16:32.017Z,99453.47
2023-03-05T18:18:59.807Z,99450.88
2023-03-05T18:21:28.156Z,99453.81
2023-03-05T18:23:55.799Z,99460.22
2023-03-05T18:26:23.386Z,99457.88
2023-03-05T18:28:52.204Z,99455.25
2023-03-05T18:31:20.266Z,99452.00
2023-03-05T18:33:47.749Z,99453.88
2023-03-05T18:36:15.536Z,99455.56
2023-03-05T18:38:43.409Z,99449.34
2023-03-05T18:41:18.829Z,99460.84
2023-03-05T18:43:46.885Z,99458.03
2023-03-05T18:46:15.969Z,99453.69
2023-03-05T18:48:43.660Z,99463.44
2023-03-05T18:51:14.471Z,99450.19
2023-03-05T18:53:41.961Z,99455.78
2023-03-05T18:56:10.522Z,99459.25
2023-03-05T18:58:39.535Z,99454.78
2023-03-05T19:01:09.159Z,99451.47
2023-03-05T19:03:38.162Z,99455.09
2023-03-05T19:06:06.762Z,99454.13
2023-03-05T19:08:34.559Z,99442.66
2023-03-05T19:11:02.072Z,99441.78
2023-03-05T19:13:35.804Z,99444.16
2023-03-05T19:16:08.251Z,99440.78
2023-03-05T19:18:43.018Z,99442.97
2023-03-05T19:21:11.875Z,99441.25
2023-03-05T19:23:39.586Z,99438.63
2023-03-05T19:26:07.095Z,99429.63
2023-03-05T19:28:34.574Z,99427.41
2023-03-05T19:31:02.132Z,99417.75
2023-03-05T19:33:29.743Z,99415.13
2023-03-05T19:35:57.368Z,99415.13
2023-03-05T19:38:26.382Z,99418.56
2023-03-05T19:40:54.039Z,99417.88
2023-03-05T19:43:21.592Z,99406.03
2023-03-05T19:45:49.071Z,99412.50
2023-03-05T19:48:16.867Z,99409.06
2023-03-05T19:50:44.629Z,99408.03
2023-03-05T19:53:12.119Z,99415.06
2023-03-05T19:55:41.513Z,99407.28
2023-03-05T19:58:08.976Z,99409.97
2023-03-05T20:00:36.764Z,99396.00
2023-03-05T20:03:04.385Z,99399.41
2023-03-05T20:05:31.908Z,99390.41
2023-03-05T20:07:59.525Z,99386.88
2023-03-05T20:10:27.370Z,99394.50
2023-03-05T20:12:57.714Z,99390.63
2023-03-05T20:15:29.141Z,99394.19
2023-03-05T20:17:56.742Z,99390.78
2023-03-05T20:20:24.592Z,99377.34
2023-03-05T20:22:54.849Z,99379.19
2023-03-05T20:25:25.695Z,99379.22
2023-03-05T20:27:53.526Z,99381.06
2023-03-05T20:30:22.585Z,99379.19
2023-03-05T20:32:50.066Z,99380.78
2023-03-05T20:35:19.097Z,99376.75
2023-03-05T20:38:00.055Z,99380.94
2023-03-05T20:40:27.751Z,99377.59
2023-03-05T20:42:55.415Z,99371.31
2023-03-05T20:45:24.266Z,99370.41
2023-03-05T20:47:51.755Z,99368.78
2023-03-05T20:50:19.773Z,99365.47
2023-03-05T20:52:47.496Z,99357.94
2023-03-05T20:55:15.088Z,99361.56
2023-03-05T20:57:44.114Z,99356.31
2023-03-05T21:00:13.641Z,99354.41
2023-03-05T21:02:42.435Z,99346.63
2023-03-05T21:05:10.517Z,99353.72
2023-03-05T21:07:38.264Z,99346.53
2023-03-05T21:10:07.017Z,99342.09
2023-03-05T21:12:34.644Z,99332.34
2023-03-05T21:15:02.195Z,99338.53
2023-03-05T21:17:29.955Z,99333.19
2023-03-05T21:19:58.789Z,99325.31
2023-03-05T21:22:26.288Z,99333.09
2023-03-05T21:25:04.509Z,99330.44
2023-03-05T21:27:32.017Z,99332.31
2023-03-05T21:29:59.633Z,99329.56
2023-03-05T21:32:27.310Z,99322.47
2023-03-05T21:34:54.827Z,99323.72
2023-03-05T21:37:23.876Z,99315.72
2023-03-05T21:39:51.457Z,99316.47
2023-03-05T21:42:18.968Z,99307.66
2023-03-05T21:44:46.456Z,99304.06
2023-03-05T21:47:13.960Z,99303.19
2023-03-05T21:49:41.736Z,99307.63
2023-03-05T21:52:11.565Z,99303.25
2023-03-05T21:54:40.648Z,99296.19
2023-03-05T21:57:09.105Z,99290.16
2023-03-05T21:59:36.864Z,99291.16
2023-03-05T22:02:04.453Z,99292.88
2023-03-05T22:04:31.988Z,99285.69
2023-03-05T22:06:59.505Z,99276.25
2023-03-05T22:09:27.125Z,99277.09
2023-03-05T22:11:55.921Z,99277.19
2023-03-05T22:14:23.466Z,99272.53
2023-03-05T22:16:53.295Z,99271.72
2023-03-05T22:19:21.243Z,99262.16
2023-03-05T22:21:48.936Z,99262.41
2023-03-05T22:24:16.444Z,99259.63
2023-03-05T22:26:43.929Z,99260.63
2023-03-05T22:29:13.075Z,99252.44
2023-03-05T22:31:41.473Z,99252.59
2023-03-05T22:34:09.082Z,99255.13
2023-03-05T22:36:36.744Z,99249.88
2023-03-05T22:39:04.959Z,99250.69
2023-03-05T22:41:32.559Z,99248.38
2023-03-05T22:44:00.215Z,99243.63
2023-03-05T22:46:29.099Z,99243.06
2023-03-05T22:48:56.777Z,99235.94
2023-03-05T22:51:24.534Z,99233.91
2023-03-05T22:53:52.052Z,99239.44
2023-03-05T22:56:20.882Z,99229.59
2023-03-05T22:58:48.732Z,99232.22
2023-03-05T23:01:18.230Z,99230.41
2023-03-05T23:03:47.200Z,99227.06
2023-03-05T23:06:14.845Z,99222.75
2023-03-05T23:08:42.307Z,99221.66
2023-03-05T23:11:11.150Z,99221.75
2023-03-05T23:13:38.676Z,99212.94
2023-03-05T23:16:06.619Z,99220.84
2023-03-05T23:18:34.560Z,99216.44
2023-03-05T23:21:03.496Z,99215.47
2023-03-05T23:23:30.965Z,99214.78
2023-03-05T23:25:58.441Z,99214.47
2023-03-05T23:28:25.914Z,99207.59
2023-03-05T23:30:53.444Z,99206.81
2023-03-05T23:33:22.793Z,99198.84
2023-03-05T23:35:53.038Z,99205.19
2023-03-05T23:38:22.571Z,99200.63
2023-03-05T23:40:53.822Z,99199.69
2023-03-05T23:43:22.481Z,99189.28
2023-03-05T23:45:50.233Z,99192.78
2023-03-05T23:48:18.430Z,99184.84
2023-03-05T23:50:48.412Z,99182.91
2023-03-05T23:53:19.597Z,99185.69
2023-03-05T23:55:48.775Z,99181.31
2023-03-05T23:58:19.035Z,99176.84
